createdAt,value
2023-01-22T00:00:04.151Z,10.87
2023-01-22T00:02:30.633Z,7.53
2023-01-22T00:04:57.051Z,5.27
2023-01-22T00:07:23.480Z,6.27
2023-01-22T00:09:49.887Z,7.20
2023-01-22T00:12:16.737Z,5.80
2023-01-22T00:14:43.379Z,9.50
2023-01-22T00:17:09.953Z,6.93
2023-01-22T00:19:36.367Z,5.20
2023-01-22T00:22:02.804Z,6.17
2023-01-22T00:24:29.236Z,7.17
2023-01-22T00:26:55.661Z,6.77
2023-01-22T00:29:22.114Z,5.27
2023-01-22T00:31:48.666Z,7.10
2023-01-22T00:34:15.238Z,5.33
2023-01-22T00:36:41.687Z,6.93
2023-01-22T00:39:09.320Z,4.93
2023-01-22T00:41:36.784Z,5.03
2023-01-22T00:44:03.350Z,4.67
2023-01-22T00:46:29.982Z,5.57
2023-01-22T00:48:56.460Z,5.73
2023-01-22T00:51:22.902Z,4.43
2023-01-22T00:53:49.456Z,9.87
2023-01-22T00:56:15.993Z,4.83
2023-01-22T00:58:42.711Z,5.53
2023-01-22T01:01:09.348Z,4.03
2023-01-22T01:03:37.475Z,5.17
2023-01-22T01:06:08.162Z,5.63
2023-01-22T01:08:36.987Z,4.60
2023-01-22T01:11:09.559Z,5.20
2023-01-22T01:13:38.415Z,4.03
2023-01-22T01:16:07.922Z,5.07
2023-01-22T01:18:35.026Z,5.10
2023-01-22T01:21:01.903Z,3.00
2023-01-22T01:23:29.035Z,4.17
2023-01-22T01:25:55.827Z,2.73
2023-01-22T01:28:22.809Z,4.57
2023-01-22T01:30:49.261Z,4.60
2023-01-22T01:33:15.720Z,4.70
2023-01-22T01:35:42.163Z,4.43
2023-01-22T01:38:08.564Z,4.30
2023-01-22T01:40:35.493Z,5.93
2023-01-22T01:43:02.035Z,4.23
2023-01-22T01:45:34.606Z,3.90
2023-01-22T01:48:29.123Z,3.03
2023-01-22T01:51:10.399Z,3.53
2023-01-22T01:53:37.902Z,3.97
2023-01-22T01:56:11.124Z,2.87
2023-01-22T01:58:38.634Z,3.03
2023-01-22T02:01:11.626Z,3.57
2023-01-22T02:03:39.254Z,5.70
2023-01-22T02:06:05.847Z,4.87
2023-01-22T02:08:32.369Z,2.90
2023-01-22T02:10:58.900Z,2.83
2023-01-22T02:13:27.969Z,3.67
2023-01-22T02:15:54.698Z,3.47
2023-01-22T02:18:21.214Z,3.73
2023-01-22T02:20:56.636Z,2.93
2023-01-22T02:23:23.205Z,3.87
2023-01-22T02:25:49.712Z,2.70
2023-01-22T02:28:16.591Z,3.03
2023-01-22T02:30:43.578Z,3.10
2023-01-22T02:33:10.052Z,4.93
2023-01-22T02:35:36.534Z,3.43
2023-01-22T02:38:04.564Z,3.27
2023-01-22T02:40:30.972Z,3.73
2023-01-22T02:42:57.712Z,2.57
2023-01-22T02:45:24.200Z,3.53
2023-01-22T02:47:50.617Z,2.53
2023-01-22T02:50:18.128Z,3.30
2023-01-22T02:52:44.705Z,2.53
2023-01-22T02:55:11.318Z,2.63
2023-01-22T02:57:37.735Z,3.20
2023-01-22T03:00:05.146Z,3.53
2023-01-22T03:02:31.648Z,3.90
2023-01-22T03:05:03.282Z,4.17
2023-01-22T03:07:43.060Z,3.90
2023-01-22T03:10:15.046Z,3.13
2023-01-22T03:13:00.584Z,3.53
2023-01-22T03:15:45.774Z,3.30
2023-01-22T03:18:31.313Z,3.67
2023-01-22T03:21:16.262Z,2.97
2023-01-22T03:23:44.471Z,3.37
2023-01-22T03:26:10.913Z,2.40
2023-01-22T03:28:37.766Z,2.03
2023-01-22T03:31:04.578Z,2.57
2023-01-22T03:33:31.049Z,2.53
2023-01-22T03:36:06.038Z,2.60
2023-01-22T03:38:32.842Z,3.77
2023-01-22T03:41:13.678Z,2.40
2023-01-22T03:43:40.579Z,2.43
2023-01-22T03:46:14.882Z,1.90
2023-01-22T03:48:41.905Z,2.67
2023-01-22T03:51:15.759Z,2.50
2023-01-22T03:53:43.565Z,2.20
2023-01-22T03:56:15.649Z,2.30
2023-01-22T03:58:42.443Z,4.57
2023-01-22T04:01:12.117Z,2.17
2023-01-22T04:03:38.877Z,1.63
2023-01-22T04:06:05.935Z,2.27
2023-01-22T04:08:33.644Z,1.70
2023-01-22T04:11:01.479Z,1.40
2023-01-22T04:13:29.445Z,2.20
2023-01-22T04:15:56.040Z,1.53
2023-01-22T04:18:22.461Z,1.60
2023-01-22T04:20:49.531Z,1.30
2023-01-22T04:23:16.580Z,1.50
2023-01-22T04:25:43.632Z,1.80
2023-01-22T04:28:10.967Z,1.43
2023-01-22T04:30:38.618Z,1.73
2023-01-22T04:33:05.100Z,1.30
2023-01-22T04:35:31.547Z,1.60
2023-01-22T04:37:58.621Z,1.60
2023-01-22T04:40:25.208Z,2.57
2023-01-22T04:42:51.831Z,1.37
2023-01-22T04:45:19.022Z,1.90
2023-01-22T04:47:48.702Z,1.90
2023-01-22T04:50:17.828Z,2.00
2023-01-22T04:52:44.657Z,1.87
2023-01-22T04:55:11.481Z,1.70
2023-01-22T04:57:38.372Z,1.70
2023-01-22T05:00:05.989Z,1.50
2023-01-22T05:02:32.590Z,1.97
2023-01-22T05:04:58.985Z,1.90
2023-01-22T05:07:25.422Z,1.57
2023-01-22T05:09:51.814Z,1.73
2023-01-22T05:12:18.207Z,2.70
2023-01-22T05:14:44.617Z,2.30
2023-01-22T05:17:11.043Z,1.90
2023-01-22T05:19:37.615Z,1.93
2023-01-22T05:22:04.477Z,1.83
2023-01-22T05:24:30.999Z,1.83
2023-01-22T05:26:57.617Z,2.50
2023-01-22T05:29:26.025Z,1.77
2023-01-22T05:31:56.576Z,1.90
2023-01-22T05:34:23.526Z,2.10
2023-01-22T05:36:50.064Z,1.90
2023-01-22T05:39:17.110Z,1.93
2023-01-22T05:41:43.693Z,1.60
2023-01-22T05:44:11.552Z,1.90
2023-01-22T05:46:37.960Z,1.83
2023-01-22T05:49:05.304Z,2.03
2023-01-22T05:51:32.510Z,2.10
2023-01-22T05:53:59.055Z,1.53
2023-01-22T05:56:25.479Z,2.00
2023-01-22T05:58:52.116Z,1.63
2023-01-22T06:01:18.765Z,2.30
2023-01-22T06:03:45.287Z,1.83
2023-01-22T06:06:13.498Z,2.07
2023-01-22T06:08:39.928Z,1.93
2023-01-22T06:11:09.050Z,1.87
2023-01-22T06:13:35.558Z,2.20
2023-01-22T06:16:02.084Z,1.97
2023-01-22T06:18:28.779Z,2.03
2023-01-22T06:21:00.715Z,2.30
2023-01-22T06:23:28.124Z,2.00
2023-01-22T06:25:56.300Z,1.80
2023-01-22T06:28:23.007Z,3.03
2023-01-22T06:30:49.597Z,2.10
2023-01-22T06:33:16.091Z,2.00
2023-01-22T06:35:42.614Z,1.63
2023-01-22T06:38:09.115Z,2.53
2023-01-22T06:40:35.548Z,2.97
2023-01-22T06:43:02.952Z,2.50
2023-01-22T06:45:29.379Z,2.90
2023-01-22T06:47:55.822Z,2.50
2023-01-22T06:50:22.350Z,3.33
2023-01-22T06:52:48.772Z,2.50
2023-01-22T06:55:15.215Z,4.03
2023-01-22T06:57:41.672Z,2.73
2023-01-22T07:00:08.667Z,2.57
2023-01-22T07:02:35.088Z,3.03
2023-01-22T07:05:01.510Z,2.90
2023-01-22T07:07:27.944Z,3.17
2023-01-22T07:09:54.394Z,2.63
2023-01-22T07:12:20.917Z,2.93
2023-01-22T07:14:47.305Z,3.60
2023-01-22T07:17:13.792Z,3.37
2023-01-22T07:19:40.193Z,2.90
2023-01-22T07:22:06.609Z,3.20
2023-01-22T07:24:33.064Z,3.47
2023-01-22T07:27:01.401Z,3.50
2023-01-22T07:29:27.838Z,3.47
2023-01-22T07:31:54.301Z,3.97
2023-01-22T07:34:20.861Z,5.07
2023-01-22T07:36:47.263Z,4.83
2023-01-22T07:39:13.813Z,3.93
2023-01-22T07:41:40.235Z,4.03
2023-01-22T07:44:08.398Z,3.63
2023-01-22T07:46:35.505Z,4.83
2023-01-22T07:49:02.014Z,4.13
2023-01-22T07:51:28.523Z,4.13
2023-01-22T07:53:55.144Z,3.83
2023-01-22T07:56:21.627Z,6.17
2023-01-22T07:58:48.260Z,3.97
2023-01-22T08:01:15.650Z,3.43
2023-01-22T08:03:42.304Z,4.23
2023-01-22T08:06:09.559Z,3.97
2023-01-22T08:08:36.112Z,4.03
2023-01-22T08:11:02.506Z,3.77
2023-01-22T08:13:28.920Z,3.73
2023-01-22T08:15:55.303Z,3.50
2023-01-22T08:18:23.008Z,5.00
2023-01-22T08:20:49.623Z,4.77
2023-01-22T08:23:16.088Z,4.67
2023-01-22T08:25:42.504Z,5.23
2023-01-22T08:28:08.936Z,4.40
2023-01-22T08:30:45.488Z,4.40
2023-01-22T08:33:12.322Z,4.83
2023-01-22T08:35:39.673Z,4.97
2023-01-22T08:38:06.183Z,5.20
2023-01-22T08:40:32.561Z,7.23
2023-01-22T08:42:58.991Z,5.10
2023-01-22T08:45:25.503Z,5.97
2023-01-22T08:47:56.531Z,4.57
2023-01-22T08:50:23.028Z,4.60
2023-01-22T08:52:49.459Z,5.93
2023-01-22T08:55:15.867Z,5.13
2023-01-22T08:57:42.280Z,4.60
2023-01-22T09:00:11.259Z,4.43
2023-01-22T09:02:37.676Z,4.83
2023-01-22T09:05:04.238Z,4.33
2023-01-22T09:07:30.668Z,5.03
2023-01-22T09:09:57.100Z,4.77
2023-01-22T09:12:23.758Z,4.77
2023-01-22T09:14:50.164Z,4.93
2023-01-22T09:17:16.570Z,5.33
2023-01-22T09:19:43.097Z,6.67
2023-01-22T09:22:09.629Z,5.53
2023-01-22T09:24:36.056Z,7.63
2023-01-22T09:27:02.466Z,4.83
2023-01-22T09:29:28.856Z,5.67
2023-01-22T09:31:55.311Z,5.03
2023-01-22T09:34:21.759Z,5.57
2023-01-22T09:36:48.474Z,5.60
2023-01-22T09:39:14.896Z,6.53
2023-01-22T09:41:43.586Z,6.00
2023-01-22T09:44:25.230Z,7.73
2023-01-22T09:46:59.965Z,5.87
2023-01-22T09:49:32.664Z,6.23
2023-01-22T09:52:00.827Z,6.47
2023-01-22T09:54:28.757Z,7.83
2023-01-22T09:57:00.476Z,6.17
2023-01-22T09:59:31.042Z,5.63
2023-01-22T10:02:00.350Z,5.97
2023-01-22T10:04:33.331Z,5.97
2023-01-22T10:07:01.730Z,5.77
2023-01-22T10:09:31.051Z,6.93
2023-01-22T10:11:59.152Z,7.83
2023-01-22T10:14:28.098Z,5.57
2023-01-22T10:16:55.819Z,5.63
2023-01-22T10:19:29.009Z,7.17
2023-01-22T10:22:01.316Z,9.67
2023-01-22T10:24:28.377Z,6.07
2023-01-22T10:26:55.811Z,6.43
2023-01-22T10:29:30.874Z,6.30
2023-01-22T10:32:02.958Z,6.07
2023-01-22T10:34:32.749Z,6.20
2023-01-22T10:37:09.311Z,8.57
2023-01-22T10:39:40.565Z,6.20
2023-01-22T10:42:07.323Z,8.77
2023-01-22T10:44:33.764Z,7.50
2023-01-22T10:47:20.460Z,7.77
2023-01-22T10:49:48.198Z,7.37
2023-01-22T10:52:27.569Z,6.97
2023-01-22T10:54:56.255Z,6.80
2023-01-22T10:57:27.781Z,6.20
2023-01-22T11:00:19.930Z,7.10
2023-01-22T11:02:48.270Z,6.70
2023-01-22T11:05:18.044Z,6.73
2023-01-22T11:07:46.575Z,6.17
2023-01-22T11:10:23.463Z,6.07
2023-01-22T11:12:55.124Z,6.37
2023-01-22T11:15:29.001Z,8.93
2023-01-22T11:17:59.909Z,8.83
2023-01-22T11:20:31.109Z,7.77
2023-01-22T11:23:09.451Z,7.77
2023-01-22T11:25:44.967Z,7.07
2023-01-22T11:28:41.674Z,6.90
2023-01-22T11:31:50.739Z,6.77
2023-01-22T11:34:33.650Z,6.17
2023-01-22T11:37:23.632Z,6.67
2023-01-22T11:40:17.640Z,7.23
2023-01-22T11:42:50.217Z,7.27
2023-01-22T11:45:27.959Z,7.03
2023-01-22T11:48:10.988Z,7.53
2023-01-22T11:50:43.494Z,7.33
2023-01-22T11:53:28.187Z,6.77
2023-01-22T11:56:13.261Z,7.03
2023-01-22T11:59:08.609Z,7.03
2023-01-22T12:01:58.408Z,6.90
2023-01-22T12:05:03.004Z,6.33
2023-01-22T12:07:50.603Z,7.20
2023-01-22T12:10:44.411Z,6.77
2023-01-22T12:13:34.002Z,6.83
2023-01-22T12:16:23.642Z,8.13
2023-01-22T12:18:58.532Z,8.37
2023-01-22T12:21:47.096Z,7.27
2023-01-22T12:24:33.401Z,8.50
2023-01-22T12:27:04.024Z,7.53
2023-01-22T12:29:34.831Z,8.50
2023-01-22T12:32:10.955Z,8.47
2023-01-22T12:35:00.577Z,8.77
2023-01-22T12:37:34.076Z,8.97
2023-01-22T12:40:19.657Z,9.20
2023-01-22T12:43:00.327Z,8.40
2023-01-22T12:46:02.515Z,10.10
2023-01-22T12:48:54.343Z,8.03
2023-01-22T12:51:38.909Z,8.83
2023-01-22T12:54:32.291Z,7.87
2023-01-22T12:57:22.818Z,8.87
2023-01-22T13:00:22.441Z,8.13
2023-01-22T13:02:48.931Z,7.27
2023-01-22T13:05:18.713Z,7.00
2023-01-22T13:07:45.831Z,7.43
2023-01-22T13:10:33.449Z,7.20
2023-01-22T13:13:29.498Z,8.23
2023-01-22T13:16:06.700Z,7.63
2023-01-22T13:18:38.193Z,8.17
2023-01-22T13:21:07.611Z,7.87
2023-01-22T13:23:41.931Z,7.30
2023-01-22T13:26:16.797Z,8.10
2023-01-22T13:28:49.610Z,8.93
2023-01-22T13:31:16.801Z,7.70
2023-01-22T13:33:58.199Z,7.83
2023-01-22T13:36:25.474Z,7.73
2023-01-22T13:38:57.721Z,6.80
2023-01-22T13:41:30.683Z,7.77
2023-01-22T13:43:57.122Z,8.43
2023-01-22T13:46:23.870Z,7.77
2023-01-22T13:49:07.467Z,8.50
2023-01-22T13:51:35.244Z,8.90
2023-01-22T13:54:02.347Z,7.67
2023-01-22T13:56:29.103Z,9.60
2023-01-22T13:59:18.850Z,8.93
2023-01-22T14:01:46.185Z,9.27
2023-01-22T14:04:26.294Z,7.97
2023-01-22T14:06:52.724Z,8.97
2023-01-22T14:09:33.979Z,8.23
2023-01-22T14:12:22.887Z,8.67
2023-01-22T14:14:49.386Z,10.53
2023-01-22T14:17:28.749Z,7.93
2023-01-22T14:19:56.304Z,9.47
2023-01-22T14:22:23.544Z,9.27
2023-01-22T14:24:52.899Z,8.97
2023-01-22T14:27:21.306Z,9.20
2023-01-22T14:29:48.357Z,10.10
2023-01-22T14:32:14.772Z,9.53
2023-01-22T14:34:41.329Z,10.67
2023-01-22T14:37:07.758Z,11.40
2023-01-22T14:39:35.212Z,9.60
2023-01-22T14:42:02.050Z,9.57
2023-01-22T14:44:28.548Z,10.17
2023-01-22T14:46:54.987Z,10.13
2023-01-22T14:49:21.399Z,10.70
2023-01-22T14:51:47.867Z,9.63
2023-01-22T14:54:14.284Z,10.57
2023-01-22T14:56:40.694Z,9.97
2023-01-22T14:59:07.116Z,10.90
2023-01-22T15:01:33.524Z,11.13
2023-01-22T15:04:01.238Z,11.43
2023-01-22T15:06:27.709Z,9.83
2023-01-22T15:08:54.128Z,9.70
2023-01-22T15:11:20.581Z,11.07
2023-01-22T15:13:47.475Z,10.27
2023-01-22T15:16:13.930Z,8.17
2023-01-22T15:18:40.373Z,9.13
2023-01-22T15:21:07.088Z,9.10
2023-01-22T15:23:34.262Z,10.70
2023-01-22T15:26:02.827Z,9.00
2023-01-22T15:28:29.529Z,9.50
2023-01-22T15:30:58.798Z,9.83
2023-01-22T15:33:25.291Z,10.17
2023-01-22T15:35:51.996Z,8.57
2023-01-22T15:38:18.445Z,8.70
2023-01-22T15:40:44.838Z,8.43
2023-01-22T15:43:11.265Z,10.07
2023-01-22T15:45:37.768Z,9.27
2023-01-22T15:48:04.238Z,9.10
2023-01-22T15:50:30.646Z,8.43
2023-01-22T15:52:59.905Z,8.97
2023-01-22T15:55:27.092Z,8.77
2023-01-22T15:57:53.487Z,8.40
2023-01-22T16:00:21.359Z,10.60
2023-01-22T16:02:47.799Z,10.13
2023-01-22T16:05:14.411Z,9.33
2023-01-22T16:07:40.848Z,8.90
2023-01-22T16:10:07.461Z,9.10
2023-01-22T16:12:34.850Z,8.93
2023-01-22T16:15:01.279Z,9.17
2023-01-22T16:17:27.688Z,9.63
2023-01-22T16:19:54.139Z,9.53
2023-01-22T16:22:20.530Z,9.13
2023-01-22T16:24:47.091Z,10.53
2023-01-22T16:27:13.581Z,8.83
2023-01-22T16:29:40.092Z,8.87
2023-01-22T16:32:06.669Z,8.60
2023-01-22T16:34:33.118Z,9.07
2023-01-22T16:36:59.665Z,9.20
2023-01-22T16:39:26.686Z,9.33
2023-01-22T16:41:53.683Z,9.60
2023-01-22T16:44:24.487Z,8.30
2023-01-22T16:46:54.270Z,8.57
2023-01-22T16:49:22.973Z,8.83
2023-01-22T16:51:54.829Z,8.63
2023-01-22T16:54:32.936Z,9.03
2023-01-22T16:57:00.683Z,10.07
2023-01-22T16:59:27.567Z,7.67
2023-01-22T17:01:54.652Z,8.17
2023-01-22T17:04:21.270Z,8.23
2023-01-22T17:06:50.061Z,8.93
2023-01-22T17:09:19.653Z,7.93
2023-01-22T17:11:49.760Z,8.07
2023-01-22T17:14:18.644Z,8.17
2023-01-22T17:16:45.242Z,9.03
2023-01-22T17:19:11.665Z,8.70
2023-01-22T17:21:38.109Z,8.80
2023-01-22T17:24:04.985Z,8.23
2023-01-22T17:26:31.485Z,8.70
2023-01-22T17:28:57.948Z,9.47
2023-01-22T17:31:24.915Z,9.10
2023-01-22T17:33:55.199Z,9.70
2023-01-22T17:36:24.070Z,10.37
2023-01-22T17:38:51.640Z,9.40
2023-01-22T17:41:20.250Z,10.97
2023-01-22T17:43:48.176Z,9.03
2023-01-22T17:46:16.920Z,11.73
2023-01-22T17:48:44.512Z,10.17
2023-01-22T17:51:13.718Z,11.90
2023-01-22T17:53:42.098Z,11.37
2023-01-22T17:56:12.883Z,11.23
2023-01-22T17:58:43.839Z,10.23
2023-01-22T18:01:12.430Z,12.70
2023-01-22T18:03:38.942Z,14.00
2023-01-22T18:06:05.810Z,13.43
2023-01-22T18:08:33.168Z,13.63
2023-01-22T18:10:59.789Z,11.57
2023-01-22T18:13:26.355Z,11.93
2023-01-22T18:15:53.034Z,12.80
2023-01-22T18:18:19.442Z,13.30
2023-01-22T18:20:46.304Z,13.37
2023-01-22T18:23:14.242Z,17.00
2023-01-22T18:25:46.716Z,12.43
2023-01-22T18:28:14.914Z,13.40
2023-01-22T18:30:41.388Z,15.03
2023-01-22T18:33:07.916Z,15.30
2023-01-22T18:35:34.646Z,13.57
2023-01-22T18:38:02.030Z,14.57
2023-01-22T18:40:30.806Z,17.57
2023-01-22T18:42:57.902Z,14.43
2023-01-22T18:45:25.177Z,19.90
2023-01-22T18:47:55.201Z,15.03
2023-01-22T18:50:22.504Z,15.53
2023-01-22T18:52:49.311Z,16.77
2023-01-22T18:55:16.900Z,15.07
2023-01-22T18:57:46.259Z,15.63
2023-01-22T19:00:13.699Z,14.70
2023-01-22T19:02:40.188Z,18.30
2023-01-22T19:05:07.351Z,18.87
2023-01-22T19:07:38.056Z,18.20
2023-01-22T19:10:06.190Z,16.30
2023-01-22T19:12:32.614Z,16.03
2023-01-22T19:14:59.091Z,16.20
2023-01-22T19:17:25.679Z,18.27
2023-01-22T19:19:52.210Z,17.60
2023-01-22T19:22:18.639Z,14.87
2023-01-22T19:24:45.549Z,16.60
2023-01-22T19:27:12.516Z,15.40
2023-01-22T19:29:39.654Z,15.40
2023-01-22T19:32:06.480Z,15.13
2023-01-22T19:34:32.925Z,15.77
2023-01-22T19:37:02.208Z,14.00
2023-01-22T19:39:29.179Z,13.30
2023-01-22T19:41:56.590Z,15.10
2023-01-22T19:44:23.057Z,15.53
2023-01-22T19:46:49.609Z,14.67
2023-01-22T19:49:16.092Z,14.33
2023-01-22T19:51:42.908Z,12.57
2023-01-22T19:54:10.144Z,13.20
2023-01-22T19:56:37.823Z,16.63
2023-01-22T19:59:07.598Z,15.33
2023-01-22T20:01:34.873Z,14.70
2023-01-22T20:04:01.323Z,13.53
2023-01-22T20:06:27.783Z,15.80
2023-01-22T20:08:55.247Z,13.70
2023-01-22T20:11:21.905Z,14.00
2023-01-22T20:13:48.808Z,14.63
2023-01-22T20:16:21.908Z,17.27
2023-01-22T20:18:49.140Z,15.07
2023-01-22T20:21:16.934Z,12.73
2023-01-22T20:23:44.563Z,15.07
2023-01-22T20:26:11.695Z,16.63
2023-01-22T20:28:39.446Z,13.63
2023-01-22T20:31:09.889Z,13.50
2023-01-22T20:33:37.234Z,13.70
2023-01-22T20:36:09.647Z,13.20
2023-01-22T20:38:36.213Z,13.17
2023-01-22T20:41:05.057Z,15.07
2023-01-22T20:43:32.122Z,15.23
2023-01-22T20:46:05.123Z,14.43
2023-01-22T20:48:32.381Z,12.80
2023-01-22T20:50:58.991Z,15.13
2023-01-22T20:53:26.308Z,15.13
2023-01-22T20:56:04.156Z,12.93
2023-01-22T20:58:32.070Z,13.23
2023-01-22T21:01:06.823Z,13.23
2023-01-22T21:03:33.731Z,15.80
2023-01-22T21:06:05.119Z,11.90
2023-01-22T21:08:31.671Z,15.13
2023-01-22T21:10:59.284Z,14.03
2023-01-22T21:13:25.898Z,14.97
2023-01-22T21:15:52.613Z,14.13
2023-01-22T21:18:19.807Z,13.40
2023-01-22T21:20:46.277Z,16.90
2023-01-22T21:23:12.946Z,15.17
2023-01-22T21:25:39.357Z,15.70
2023-01-22T21:28:05.907Z,15.77
2023-01-22T21:30:32.372Z,13.70
2023-01-22T21:32:58.800Z,14.90
2023-01-22T21:35:25.259Z,15.80
2023-01-22T21:37:51.685Z,13.17
2023-01-22T21:40:18.396Z,13.43
2023-01-22T21:43:03.647Z,14.93
2023-01-22T21:45:48.678Z,18.30
2023-01-22T21:48:15.124Z,15.00
2023-01-22T21:50:43.003Z,14.40
2023-01-22T21:53:10.393Z,13.63
2023-01-22T21:55:36.845Z,15.17
2023-01-22T21:58:04.155Z,15.73
2023-01-22T22:00:30.913Z,17.17
2023-01-22T22:02:57.673Z,16.33
2023-01-22T22:05:24.112Z,15.20
2023-01-22T22:07:50.529Z,17.13
2023-01-22T22:10:17.709Z,14.73
2023-01-22T22:12:44.353Z,14.83
2023-01-22T22:15:12.089Z,18.13
2023-01-22T22:17:38.862Z,14.67
2023-01-22T22:20:06.164Z,14.07
2023-01-22T22:22:32.559Z,14.07
2023-01-22T22:24:58.962Z,14.77
2023-01-22T22:27:27.735Z,15.23
2023-01-22T22:29:54.452Z,16.23
2023-01-22T22:32:21.588Z,15.67
2023-01-22T22:34:49.366Z,13.90
2023-01-22T22:37:16.610Z,13.97
2023-01-22T22:39:43.047Z,17.20
2023-01-22T22:42:09.550Z,13.63
2023-01-22T22:44:37.461Z,16.17
2023-01-22T22:47:04.779Z,17.53
2023-01-22T22:49:31.706Z,14.33
2023-01-22T22:51:58.219Z,14.00
2023-01-22T22:54:24.720Z,15.67
2023-01-22T22:56:52.700Z,14.77
2023-01-22T22:59:22.162Z,17.20
2023-01-22T23:01:49.657Z,15.67
2023-01-22T23:04:16.520Z,17.43
2023-01-22T23:06:45.019Z,16.10
2023-01-22T23:09:13.729Z,17.30
2023-01-22T23:11:40.535Z,16.57
2023-01-22T23:14:07.559Z,15.07
2023-01-22T23:16:39.484Z,16.13
2023-01-22T23:19:15.516Z,16.77
2023-01-22T23:21:42.280Z,13.73
2023-01-22T23:24:10.886Z,16.60
2023-01-22T23:26:37.964Z,17.07
2023-01-22T23:29:07.307Z,15.73
2023-01-22T23:31:36.133Z,15.93
2023-01-22T23:34:03.549Z,16.47
2023-01-22T23:36:30.741Z,15.07
2023-01-22T23:38:57.195Z,15.17
2023-01-22T23:41:23.744Z,18.97
2023-01-22T23:43:50.488Z,15.43
2023-01-22T23:46:19.574Z,17.43
2023-01-22T23:48:46.098Z,14.40
2023-01-22T23:51:13.780Z,17.77
2023-01-22T23:53:42.298Z,16.03
2023-01-22T23:56:10.273Z,18.47
2023-01-22T23:58:36.899Z,17.60
